Harrison Township, Michigan
Current Conditions -  °F | °C
As of 6:14 PM on Saturday 22 Nov 2014 (Local Time) from KMTC Reporting Station
Overcast Overcast  
Wind Chill:   Ceiling: 2000
Heat Index:   Visibility: 7mi
Dew Point:   Wind: 12mph
Humidity: 93%   Direction: 220°SW
Pressure: 29.92"   Gusts: 20mph
Location:  42.58°N, 82.83°W
Report Text: KMTC 222314Z 22010G17KT 7SM OVC020 08/07 A2992
Loading
Personal Weather Stations






























Interactive Weather Map New forecast layout! Learn more

10-Day Weather Forecast

Advertisements
Track Severe Weather on mobile